Time;durP1;ratioP1;P1;durP2;ratioP2;P2;SDS_P1;SDS_P2;PMS_P1;PMS_P2;Temp;Humidity;BMP_temperature;BMP_pressure;BME280_temperature;BME280_humidity;BME280_pressure;Samples;Min_cycle;Max_cycle;Signal;HPM_P1;HPM_P2
2022/01/15 00:02:02;;;;;;;;;123.00;85.33;;;;;-4.55;100.00;100359.88;6278461;20;3690895;-41
2022/01/15 00:04:32;;;;;;;;;156.00;107.67;;;;;-4.38;100.00;100365.28;6277405;20;3717962;-41
2022/01/15 00:07:02;;;;;;;;;133.67;89.00;;;;;-4.46;100.00;100365.22;6279044;20;3703396;-41
2022/01/15 00:09:32;;;;;;;;;110.00;77.67;;;;;-3.85;100.00;100356.13;6283617;20;3681494;-41
2022/01/15 00:12:02;;;;;;;;;113.67;87.67;;;;;-3.91;100.00;100372.69;6280776;20;3689818;-43
2022/01/15 00:14:37;;;;;;;;;117.00;80.33;;;;;-3.64;100.00;100366.78;6282683;20;3692954;-40
2022/01/15 00:17:18;;;;;;;;;111.67;81.33;;;;;-3.58;100.00;100371.19;6281931;20;3683548;-41
2022/01/15 00:19:50;;;;;;;;;110.67;77.33;;;;;-3.85;100.00;100359.63;6281200;20;3681555;-41
2022/01/15 00:22:20;;;;;;;;;101.33;75.67;;;;;-3.69;100.00;100358.00;6316461;20;3682586;-42
2022/01/15 00:24:50;;;;;;;;;107.00;77.33;;;;;-3.84;100.00;100360.53;6314652;20;3677332;-41
2022/01/15 00:27:19;;;;;;;;;116.00;82.00;;;;;-3.80;100.00;100362.28;6285377;20;3703320;-40
2022/01/15 00:29:49;;;;;;;;;116.00;82.67;;;;;-3.84;100.00;100373.66;6285680;20;3698300;-41
2022/01/15 00:32:19;;;;;;;;;114.33;81.00;;;;;-4.09;100.00;100383.03;6283943;20;3689940;-41
2022/01/15 00:34:48;;;;;;;;;112.67;85.67;;;;;-4.16;100.00;100391.69;6282493;20;3686686;-42
2022/01/15 00:37:18;;;;;;;;;114.33;80.00;;;;;-3.88;100.00;100388.47;6279572;20;3691929;-41
2022/01/15 00:39:48;;;;;;;;;110.33;78.67;;;;;-4.06;100.00;100394.41;6280390;20;3683552;-41
2022/01/15 00:42:18;;;;;;;;;112.67;80.00;;;;;-4.16;100.00;100394.31;6316220;20;3683581;-43
2022/01/15 00:44:50;;;;;;;;;112.67;83.00;;;;;-4.14;100.00;100397.84;6278552;20;3696084;-41
2022/01/15 00:47:20;;;;;;;;;110.33;76.67;;;;;-4.11;100.00;100395.25;6281453;20;3676231;-41
2022/01/15 00:49:49;;;;;;;;;111.33;78.67;;;;;-4.02;100.00;100390.09;6281744;20;3692920;-41
2022/01/15 00:52:19;;;;;;;;;112.00;84.00;;;;;-4.05;100.00;100380.47;6282445;20;3679475;-43
2022/01/15 00:54:49;;;;;;;;;117.00;79.00;;;;;-3.96;100.00;100384.91;6281642;20;3697108;-42
2022/01/15 00:57:19;;;;;;;;;107.67;78.33;;;;;-3.92;100.00;100376.19;6280107;20;3686691;-44
2022/01/15 00:59:49;;;;;;;;;103.33;74.67;;;;;-4.07;100.00;100386.56;6281247;20;3677296;-41
2022/01/15 01:02:20;;;;;;;;;111.67;79.00;;;;;-4.27;100.00;100384.59;6316656;20;3690860;-41
2022/01/15 01:04:49;;;;;;;;;109.00;82.67;;;;;-4.24;100.00;100387.28;6280462;20;3685629;-40
2022/01/15 01:07:19;;;;;;;;;108.67;78.33;;;;;-4.38;100.00;100401.97;6316924;20;3685640;-41
2022/01/15 01:10:11;;;;;;;;;103.33;78.67;;;;;-4.64;100.00;100405.19;6282616;20;3658665;-42
2022/01/15 01:23:48;;;;;;;;;118.67;91.00;;;;;-4.07;100.00;100407.53;6278822;20;3690874;-40
2022/01/15 01:29:04;;;;;;;;;105.00;77.33;;;;;-4.15;100.00;100403.97;6313700;20;3666938;-41
2022/01/15 01:31:40;;;;;;;;;108.33;77.67;;;;;-4.85;100.00;100403.19;6312130;20;3688855;-41
2022/01/15 01:34:13;;;;;;;;;130.00;90.67;;;;;-4.77;100.00;100395.44;6283041;20;3692930;-41
2022/01/15 01:37:06;;;;;;;;;131.33;98.33;;;;;-4.67;100.00;100399.03;6282261;20;3695095;-41
2022/01/15 01:39:50;;;;;;;;;137.67;97.33;;;;;-5.25;100.00;100404.41;6282923;20;3691941;-41
2022/01/15 01:45:14;;;;;;;;;108.33;77.33;;;;;-4.67;100.00;100394.66;6278626;20;3684669;-40
2022/01/15 01:47:45;;;;;;;;;110.00;80.67;;;;;-4.37;100.00;100394.97;6314921;20;3679410;-40
2022/01/15 01:50:20;;;;;;;;;110.67;74.33;;;;;-4.49;100.00;100398.38;6313122;20;3690891;-41
2022/01/15 01:52:55;;;;;;;;;108.00;75.67;;;;;-4.69;100.00;100396.38;6277411;20;3684581;-41
2022/01/15 01:55:28;;;;;;;;;110.00;77.67;;;;;-4.82;100.00;100394.50;6314065;20;3677399;-40
2022/01/15 01:57:59;;;;;;;;;101.67;77.33;;;;;-4.98;100.00;100393.41;6312414;20;3662696;-41
2022/01/15 02:00:31;;;;;;;;;105.67;74.33;;;;;-4.90;100.00;100401.38;6314103;20;3678335;-40
2022/01/15 02:03:00;;;;;;;;;98.50;71.50;;;;;-4.89;100.00;100400.53;6309908;20;2500310;-43
2022/01/15 02:05:31;;;;;;;;;102.33;72.33;;;;;-4.74;100.00;100405.06;6281824;20;3673261;-40
2022/01/15 02:07:59;;;;;;;;;93.50;71.00;;;;;-4.83;100.00;100400.59;6313679;20;2889820;-40
2022/01/15 02:10:29;;;;;;;;;98.33;74.00;;;;;-4.75;100.00;100398.06;6279892;20;3659671;-40
2022/01/15 02:13:01;;;;;;;;;100.33;73.00;;;;;-4.82;100.00;100389.25;6314572;20;2911906;-40
2022/01/15 02:15:30;;;;;;;;;101.67;71.67;;;;;-5.06;100.00;100389.81;6312964;20;3676391;-40
2022/01/15 02:18:00;;;;;;;;;87.67;61.33;;;;;-5.18;100.00;100385.31;6313927;20;3666881;-40
2022/01/15 02:26:06;;;;;;;;;105.00;75.67;;;;;-4.83;100.00;100374.41;6310068;20;3668071;-40
2022/01/15 02:28:45;;;;;;;;;108.00;78.00;;;;;-4.75;100.00;100378.00;6312408;20;3678485;-41
2022/01/15 02:31:18;;;;;;;;;112.33;78.00;;;;;-4.79;100.00;100380.56;6309796;20;3676294;-40
2022/01/15 02:33:52;;;;;;;;;97.67;72.67;;;;;-4.98;100.00;100380.31;6279873;20;3665889;-40
2022/01/15 02:36:33;;;;;;;;;101.33;67.33;;;;;-4.61;100.00;100383.38;6311774;20;3677509;-40
2022/01/15 02:39:03;;;;;;;;;78.00;56.50;;;;;-2.49;100.00;100376.97;6308811;20;2500240;-42
2022/01/15 02:41:37;;;;;;;;;72.00;50.33;;;;;-1.53;100.00;100375.25;6279115;20;2881512;-43
2022/01/15 02:44:15;;;;;;;;;74.50;53.00;;;;;-1.30;100.00;100386.63;6309437;20;2885667;-42
2022/01/15 02:49:14;;;;;;;;;63.50;48.00;;;;;-0.71;100.00;100389.94;6279544;20;2859720;-41
2022/01/15 02:51:43;;;;;;;;;71.00;47.50;;;;;-0.61;100.00;100398.69;6277652;20;2861679;-41
2022/01/15 02:54:12;;;;;;;;;62.00;44.00;;;;;-0.69;100.00;100391.69;6280171;20;2870034;-40
2022/01/15 02:56:44;;;;;;;;;64.50;47.50;;;;;-0.49;100.00;100396.00;6278422;20;2875269;-40
2022/01/15 02:59:26;;;;;;;;;47.50;41.50;;;;;-0.53;100.00;100395.13;6281604;20;2858567;-40
2022/01/15 03:01:53;;;;;;;;;58.50;45.00;;;;;-0.70;100.00;100391.72;6276563;20;2508753;-43
2022/01/15 03:04:22;;;;;;;;;43.00;42.00;;;;;-0.54;100.00;100392.50;6280564;20;2869018;-40
2022/01/15 03:06:50;;;;;;;;;51.50;44.00;;;;;-0.50;100.00;100381.03;6273493;20;2500278;-41
2022/01/15 03:09:18;;;;;;;;;51.00;40.00;;;;;-0.49;100.00;100386.31;6277681;20;2500245;-40
2022/01/15 03:11:47;;;;;;;;;61.67;47.00;;;;;-0.53;100.00;100388.97;6273471;20;2877507;-40
2022/01/15 03:14:19;;;;;;;;;62.00;47.00;;;;;-0.64;100.00;100393.44;6312178;20;2859677;-40
2022/01/15 03:16:47;;;;;;;;;43.50;33.00;;;;;-0.58;100.00;100396.03;6276685;20;2500258;-40
2022/01/15 03:19:34;;;;;;;;;44.50;37.50;;;;;-0.56;100.00;100404.81;6275689;20;2508694;-41
2022/01/15 03:22:04;;;;;;;;;43.00;35.00;;;;;-0.25;100.00;100403.78;6276708;20;2502333;-41
2022/01/15 03:24:33;;;;;;;;;47.33;39.33;;;;;-0.01;100.00;100405.38;6280608;20;2868989;-40
2022/01/15 03:27:03;;;;;;;;;40.33;32.67;;;;;0.00;100.00;100408.91;6309796;20;3604401;-40
2022/01/15 03:29:32;;;;;;;;;45.67;31.00;;;;;0.12;100.00;100415.84;6281128;20;2869125;-40
2022/01/15 03:32:00;;;;;;;;;47.50;36.00;;;;;0.20;100.00;100420.19;6306373;20;2500379;-40
2022/01/15 03:34:28;;;;;;;;;39.00;33.00;;;;;0.19;100.00;100423.72;6277711;20;2500246;-40
2022/01/15 03:36:56;;;;;;;;;34.00;26.50;;;;;0.25;100.00;100429.84;6277340;20;2500262;-40
2022/01/15 03:39:24;;;;;;;;;46.00;33.00;;;;;0.04;100.00;100428.25;6277244;20;2500283;-40
2022/01/15 03:41:52;;;;;;;;;37.00;32.50;;;;;-0.14;100.00;100429.22;6278024;20;2861742;-40
2022/01/15 03:44:21;;;;;;;;;32.00;28.50;;;;;-0.03;100.00;100430.94;6287149;20;2848196;-40
2022/01/15 03:46:49;;;;;;;;;42.50;27.00;;;;;0.04;100.00;100439.66;6280763;20;2496076;-40
2022/01/15 03:49:16;;;;;;;;;46.00;35.00;;;;;-0.03;100.00;100438.84;6287808;20;2871106;-41
2022/01/15 03:51:46;;;;;;;;;39.00;33.50;;;;;-0.18;100.00;100448.63;6281052;20;2500359;-40
2022/01/15 03:54:14;;;;;;;;;39.50;33.50;;;;;-0.46;100.00;100439.06;6286620;20;2866975;-42
2022/01/15 03:56:43;;;;;;;;;49.33;38.33;;;;;-0.34;100.00;100443.41;6285194;20;3608063;-41
2022/01/15 03:59:12;;;;;;;;;32.50;30.00;;;;;-0.41;100.00;100451.38;6283657;20;2834739;-42
2022/01/15 04:01:40;;;;;;;;;38.00;34.00;;;;;-0.16;100.00;100452.09;6279567;20;2500344;-40
2022/01/15 04:04:08;;;;;;;;;35.50;28.50;;;;;-0.12;100.00;100453.84;6283846;20;2500762;-40
2022/01/15 04:06:37;;;;;;;;;49.00;38.50;;;;;-0.11;100.00;100471.44;6283892;20;2869011;-40
2022/01/15 04:09:07;;;;;;;;;43.33;35.67;;;;;0.01;100.00;100460.81;6283356;20;3595066;-41
2022/01/15 04:11:36;;;;;;;;;43.00;35.00;;;;;-0.03;100.00;100465.25;6283961;20;2860258;-41
2022/01/15 04:14:05;;;;;;;;;43.00;36.50;;;;;-0.12;100.00;100474.97;6282881;20;2500500;-40
2022/01/15 04:16:34;;;;;;;;;41.33;37.33;;;;;-0.28;100.00;100471.53;6285024;20;3586755;-41
2022/01/15 04:19:06;;;;;;;;;51.50;43.50;;;;;-0.18;100.00;100477.66;6283595;20;2865864;-41
2022/01/15 04:21:37;;;;;;;;;52.50;38.00;;;;;-0.17;100.00;100476.75;6282632;20;2875255;-41
2022/01/15 04:24:07;;;;;;;;;58.33;40.67;;;;;-0.59;100.00;100478.69;6282802;20;3648176;-40
2022/01/15 04:26:35;;;;;;;;;37.50;34.00;;;;;-0.54;100.00;100483.06;6311902;20;2850299;-41
2022/01/15 04:29:06;;;;;;;;;53.33;41.33;;;;;-0.68;100.00;100490.16;6283484;20;2876404;-40
2022/01/15 04:31:53;;;;;;;;;46.50;42.00;;;;;-0.94;100.00;100495.47;6310389;20;2871146;-41
2022/01/15 04:34:29;;;;;;;;;37.00;33.50;;;;;-1.25;100.00;100497.25;6282644;20;2500376;-40
2022/01/15 04:37:14;;;;;;;;;47.67;42.00;;;;;-1.05;100.00;100503.41;6282649;20;3617960;-40
2022/01/15 04:39:43;;;;;;;;;47.50;38.00;;;;;-0.55;100.00;100496.28;6279048;20;2500264;-42
2022/01/15 04:42:11;;;;;;;;;40.00;34.50;;;;;-0.80;100.00;100506.88;6280493;20;2500354;-41
2022/01/15 04:44:39;;;;;;;;;36.50;27.00;;;;;-0.99;100.00;100510.41;6280591;20;2858574;-40
2022/01/15 04:47:08;;;;;;;;;37.50;32.00;;;;;-0.71;100.00;100520.03;6277311;20;2498183;-42
2022/01/15 04:49:37;;;;;;;;;46.50;38.00;;;;;-1.11;100.00;100511.28;6283416;20;2857684;-41
2022/01/15 04:52:06;;;;;;;;;34.00;32.50;;;;;-0.92;100.00;100517.44;6281599;20;2502377;-40
2022/01/15 04:54:35;;;;;;;;;46.50;37.50;;;;;-1.12;100.00;100515.69;6281805;20;2500307;-42
2022/01/15 04:57:03;;;;;;;;;42.50;35.00;;;;;-0.93;100.00;100515.69;6281484;20;2500395;-40
2022/01/15 04:59:31;;;;;;;;;69.00;53.00;;;;;-2.72;100.00;100513.53;6279460;20;2500247;-40
2022/01/15 05:02:00;;;;;;;;;74.50;56.00;;;;;-3.70;100.00;100513.69;6277094;20;2500307;-41
2022/01/15 05:04:30;;;;;;;;;89.33;63.33;;;;;-4.17;100.00;100513.19;6284008;20;3668055;-40
2022/01/15 05:06:59;;;;;;;;;88.67;67.00;;;;;-4.58;100.00;100518.78;6312852;20;3654510;-40
2022/01/15 05:09:29;;;;;;;;;96.00;65.67;;;;;-4.18;100.00;100511.44;6313480;20;3661686;-42
2022/01/15 05:12:09;;;;;;;;;81.00;66.00;;;;;-4.75;100.00;100519.44;6308081;20;2500275;-40
2022/01/15 05:14:39;;;;;;;;;95.33;68.00;;;;;-5.02;100.00;100512.09;6282611;20;3660637;-40
2022/01/15 05:17:10;;;;;;;;;835.50;482.50;;;;;-4.82;100.00;100512.34;6315335;20;4550242;-42
2022/01/15 05:19:40;;;;;;;;;170.67;119.33;;;;;-5.02;100.00;100505.97;6281662;20;3696720;-41
2022/01/15 05:22:09;;;;;;;;;108.33;75.00;;;;;-4.95;100.00;100518.28;6280694;20;3686699;-40
2022/01/15 05:24:39;;;;;;;;;98.83;69.17;;;;;-4.97;100.00;100514.78;6273757;20;3660088;-40
2022/01/15 05:27:09;;;;;;;;;106.00;75.33;;;;;-4.27;100.00;100509.56;6312314;20;3668021;-42
2022/01/15 05:29:39;;;;;;;;;101.67;70.00;;;;;-4.20;100.00;100506.16;6313490;20;3656773;-41
2022/01/15 05:32:09;;;;;;;;;102.00;70.00;;;;;-4.50;100.00;100509.28;6313691;20;3665015;-43
2022/01/15 05:34:41;;;;;;;;;99.00;73.00;;;;;-4.33;100.00;100520.84;6312748;20;3648131;-43
2022/01/15 05:37:11;;;;;;;;;104.33;76.00;;;;;-4.02;100.00;100515.97;6312116;20;3673124;-40
2022/01/15 05:39:41;;;;;;;;;104.33;74.33;;;;;-4.55;100.00;100529.31;6312267;20;3678363;-40
2022/01/15 05:42:11;;;;;;;;;104.33;75.67;;;;;-4.37;100.00;100526.94;6280452;20;3658540;-40
2022/01/15 05:44:40;;;;;;;;;91.67;69.00;;;;;-4.59;100.00;100532.75;6313071;20;3645485;-42
2022/01/15 05:47:10;;;;;;;;;107.67;75.33;;;;;-5.24;100.00;100534.44;6311402;20;3678442;-40
2022/01/15 05:49:40;;;;;;;;;96.67;70.33;;;;;-5.44;100.00;100539.34;6311926;20;2893315;-40
2022/01/15 05:52:10;;;;;;;;;104.00;73.00;;;;;-5.49;100.00;100535.75;6312461;20;3682499;-40
2022/01/15 05:54:39;;;;;;;;;105.33;78.00;;;;;-5.90;100.00;100540.25;6280328;20;3664799;-41
2022/01/15 05:57:10;;;;;;;;;100.67;74.00;;;;;-5.81;100.00;100543.03;6312592;20;2905506;-40
2022/01/15 05:59:39;;;;;;;;;106.33;74.33;;;;;-6.04;100.00;100546.13;6309441;20;3682722;-40
2022/01/15 06:02:10;;;;;;;;;97.00;69.67;;;;;-5.93;100.00;100542.84;6311101;20;3664819;-40
2022/01/15 06:04:40;;;;;;;;;106.00;73.00;;;;;-6.12;100.00;100550.31;6307657;20;3677332;-40
2022/01/15 06:07:10;;;;;;;;;103.00;72.00;;;;;-6.13;100.00;100555.50;6312109;20;3663866;-40
2022/01/15 06:09:40;;;;;;;;;126.00;92.67;;;;;-6.04;100.00;100553.09;6311767;20;3683611;-40
2022/01/15 06:12:10;;;;;;;;;108.67;78.67;;;;;-5.74;100.00;100560.59;6278666;20;3677414;-41
2022/01/15 06:14:39;;;;;;;;;92.60;69.00;;;;;-5.97;100.00;100555.84;6276131;20;3645247;-41
2022/01/15 06:17:09;;;;;;;;;77.00;55.33;;;;;-5.96;100.00;100549.75;6279165;20;3613760;-40
2022/01/15 06:19:39;;;;;;;;;104.67;75.00;;;;;-5.87;100.00;100555.97;6276589;20;3683783;-40
2022/01/15 06:22:09;;;;;;;;;196.00;147.67;;;;;-5.88;100.00;100557.72;6312750;20;3708326;-40
2022/01/15 06:24:40;;;;;;;;;148.00;115.33;;;;;-6.17;100.00;100559.81;6279167;20;3728481;-42
2022/01/15 06:27:11;;;;;;;;;174.67;142.67;;;;;-6.05;100.00;100560.06;6277944;20;3695006;-40
2022/01/15 06:29:41;;;;;;;;;122.67;88.67;;;;;-6.32;100.00;100564.72;6278865;20;3701334;-41
2022/01/15 06:32:12;;;;;;;;;140.33;100.00;;;;;-6.05;100.00;100570.50;6281083;20;3702369;-41
2022/01/15 06:34:42;;;;;;;;;118.00;95.33;;;;;-5.97;100.00;100568.94;6278714;20;3690845;-40
2022/01/15 06:37:11;;;;;;;;;120.33;80.67;;;;;-6.02;100.00;100574.94;6277455;20;3686724;-39
2022/01/15 06:39:41;;;;;;;;;113.33;82.67;;;;;-6.14;100.00;100575.53;6311449;20;3690855;-41
2022/01/15 06:42:11;;;;;;;;;113.00;80.50;;;;;-5.93;100.00;100585.50;6279844;20;3626303;-39
2022/01/15 06:44:40;;;;;;;;;114.00;78.00;;;;;-6.09;100.00;100579.13;6310963;20;3688796;-40
2022/01/15 06:47:11;;;;;;;;;99.67;70.67;;;;;-6.17;100.00;100585.94;6274492;20;3661671;-42
2022/01/15 06:49:41;;;;;;;;;132.67;101.00;;;;;-5.66;100.00;100579.94;6311529;20;3696189;-40
2022/01/15 06:52:10;;;;;;;;;115.67;91.33;;;;;-5.25;100.00;100578.91;6280802;20;3698120;-41
2022/01/15 06:54:40;;;;;;;;;136.67;108.00;;;;;-5.31;100.00;100587.53;6277034;20;3726263;-40
2022/01/15 06:57:10;;;;;;;;;126.00;96.33;;;;;-5.66;100.00;100587.78;6277835;20;3690939;-40
2022/01/15 06:59:40;;;;;;;;;112.00;88.00;;;;;-5.55;100.00;100588.00;6279295;20;3681778;-40
2022/01/15 07:02:11;;;;;;;;;120.67;101.00;;;;;-4.68;100.00;100589.41;6276891;20;3692963;-40
2022/01/15 07:04:41;;;;;;;;;134.67;105.67;;;;;-4.40;99.57;100597.66;6278574;20;3710659;-40
2022/01/15 07:07:10;;;;;;;;;140.33;107.33;;;;;-4.60;99.63;100599.13;6278701;20;3716016;-42
2022/01/15 07:09:40;;;;;;;;;133.67;105.67;;;;;-5.10;100.00;100582.66;6279545;20;3705926;-40
2022/01/15 07:12:10;;;;;;;;;139.67;111.33;;;;;-5.04;100.00;100588.84;6279990;20;3718052;-39
2022/01/15 07:14:39;;;;;;;;;92.33;57.00;;;;;-4.99;100.00;100595.03;6278802;20;3650220;-42
2022/01/15 07:17:10;;;;;;;;;155.33;118.67;;;;;-4.69;100.00;100600.72;6277535;20;3720388;-41
2022/01/15 07:19:40;;;;;;;;;151.00;135.00;;;;;-3.96;100.00;100592.09;6278087;20;3725362;-41
2022/01/15 07:22:10;;;;;;;;;171.67;147.00;;;;;-4.23;100.00;100596.13;6278558;20;3701253;-40
2022/01/15 07:24:39;;;;;;;;;183.67;150.33;;;;;-4.46;100.00;100594.94;6278795;20;3725208;-41
2022/01/15 07:27:10;;;;;;;;;164.33;137.33;;;;;-4.50;100.00;100595.75;6277982;20;3732545;-40
2022/01/15 07:29:40;;;;;;;;;141.00;112.67;;;;;-4.18;100.00;100603.19;6275327;20;3711922;-41
2022/01/15 07:32:09;;;;;;;;;130.67;112.00;;;;;-3.84;100.00;100588.75;6278902;20;3708540;-43
2022/01/15 07:34:39;;;;;;;;;112.33;86.33;;;;;-3.85;100.00;100600.09;6277043;20;3694115;-40
2022/01/15 07:37:10;;;;;;;;;110.00;81.00;;;;;-2.54;100.00;100595.13;6278042;20;3677284;-40
2022/01/15 07:39:39;;;;;;;;;91.00;68.67;;;;;-1.93;100.00;100598.94;6310490;20;2895265;-42
2022/01/15 07:47:16;;;;;;;;;72.33;52.33;;;;;-0.38;100.00;100602.59;3591122;20;3638833;-56
2022/01/15 07:49:46;;;;;;;;;63.67;48.67;;;;;-0.25;100.00;100601.69;6298601;20;2862781;-58
2022/01/15 07:52:15;;;;;;;;;58.50;44.50;;;;;-0.01;100.00;100613.03;6300845;20;2861805;-55
2022/01/15 07:54:50;;;;;;;;;55.50;47.00;;;;;0.37;100.00;100612.91;6267304;20;2864987;-58
2022/01/15 07:57:20;;;;;;;;;42.50;42.50;;;;;0.40;100.00;100622.56;6270252;20;2864854;-59
2022/01/15 07:59:50;;;;;;;;;67.00;54.00;;;;;0.55;100.00;100626.88;6268162;20;2867110;-59
2022/01/15 08:02:18;;;;;;;;;59.50;47.50;;;;;0.75;100.00;100619.72;6266722;20;2500251;-61
2022/01/15 08:04:48;;;;;;;;;84.33;63.00;;;;;0.24;100.00;100616.47;6264750;20;3642952;-59
2022/01/15 08:07:18;;;;;;;;;71.67;52.67;;;;;0.92;100.00;100622.22;6299339;20;2879449;-59
2022/01/15 08:09:47;;;;;;;;;59.00;45.00;;;;;1.12;99.72;100618.56;6300335;20;2851430;-58
2022/01/15 08:12:19;;;;;;;;;51.00;44.50;;;;;1.18;98.88;100624.66;6268444;20;2861785;-55
2022/01/15 08:14:50;;;;;;;;;45.00;38.50;;;;;1.61;98.96;100623.44;6268831;20;2864878;-57
2022/01/15 08:17:18;;;;;;;;;46.50;36.00;;;;;1.70;96.82;100631.28;6265907;20;2862203;-58
2022/01/15 08:19:47;;;;;;;;;43.00;35.00;;;;;1.89;95.86;100630.16;6269079;20;2846399;-55
2022/01/15 08:22:15;;;;;;;;;35.50;26.50;;;;;1.98;95.41;100630.09;6266792;20;2500290;-62
2022/01/15 08:24:43;;;;;;;;;35.50;29.50;;;;;2.17;94.09;100635.16;6266213;20;2500273;-59
2022/01/15 08:27:12;;;;;;;;;31.33;18.00;;;;;2.27;93.06;100636.81;6269512;20;3575306;-59
2022/01/15 08:29:40;;;;;;;;;19.50;16.00;;;;;2.41;92.57;100637.50;6273221;20;2822190;-60
2022/01/15 08:32:09;;;;;;;;;41.67;33.00;;;;;2.46;91.70;100641.88;6272833;20;3605489;-61
2022/01/15 08:34:38;;;;;;;;;32.50;27.00;;;;;2.53;90.41;100643.56;6272852;20;2849315;-59
2022/01/15 08:37:07;;;;;;;;;33.50;28.00;;;;;2.78;89.48;100639.66;6271792;20;2500272;-59
2022/01/15 08:39:36;;;;;;;;;43.00;34.00;;;;;2.93;88.51;100638.56;6272926;20;2867979;-58
2022/01/15 08:42:07;;;;;;;;;40.00;32.50;;;;;2.93;88.15;100643.00;6272213;20;2857648;-55
2022/01/15 08:44:41;;;;;;;;;28.50;27.50;;;;;3.07;87.59;100641.00;6275728;20;2842982;-58
2022/01/15 08:47:10;;;;;;;;;27.00;24.50;;;;;3.05;86.03;100642.78;6272775;20;2837774;-60
2022/01/15 08:49:39;;;;;;;;;33.00;25.00;;;;;3.24;85.19;100643.41;6256728;20;2500406;-59
2022/01/15 08:52:08;;;;;;;;;23.33;20.00;;;;;3.38;84.85;100637.88;6268644;20;3556554;-57
2022/01/15 08:54:36;;;;;;;;;22.50;18.00;;;;;3.40;84.65;100639.59;6302637;20;2827150;-57
2022/01/15 08:57:05;;;;;;;;;31.33;22.67;;;;;3.39;83.75;100636.94;6274791;20;3583630;-57
2022/01/15 08:59:34;;;;;;;;;21.00;13.67;;;;;3.47;82.39;100648.31;6302211;20;3569489;-56
2022/01/15 09:02:03;;;;;;;;;18.33;18.00;;;;;3.41;81.77;100643.97;6303077;20;3569168;-57
2022/01/15 09:04:35;;;;;;;;;19.67;16.67;;;;;3.56;81.86;100640.19;6327709;20;2835717;-61
2022/01/15 09:07:04;;;;;;;;;14.00;12.00;;;;;3.88;80.45;100646.72;6307649;20;2796159;-54
2022/01/15 09:09:33;;;;;;;;;16.40;13.20;;;;;3.92;79.45;100643.97;6294471;20;2799020;-59
2022/01/15 09:12:02;;;;;;;;;15.00;14.50;;;;;4.11;79.46;100644.50;6274308;20;2814881;-57
2022/01/15 09:14:29;;;;;;;;;19.00;16.00;;;;;4.02;78.46;100633.16;6271764;20;2829531;-59
2022/01/15 09:16:58;;;;;;;;;16.67;15.00;;;;;4.04;78.02;100632.22;6273754;20;3550349;-56
2022/01/15 09:19:27;;;;;;;;;22.00;15.67;;;;;4.22;76.80;100630.97;6302208;20;3560764;-55
2022/01/15 09:21:55;;;;;;;;;15.50;15.50;;;;;4.12;77.39;100624.97;6302961;20;2819119;-58
2022/01/15 09:24:24;;;;;;;;;21.00;16.00;;;;;4.22;76.80;100630.13;6268773;20;3571205;-54
2022/01/15 09:32:14;;;;;;;;;21.50;19.00;;;;;4.48;74.38;100621.59;6271742;20;2826288;-55
2022/01/15 09:34:44;;;;;;;;;19.50;15.50;;;;;4.55;74.01;100621.41;6291482;20;2818076;-56
2022/01/15 09:37:12;;;;;;;;;16.00;14.00;;;;;4.52;74.57;100617.94;6302547;20;2821215;-61
2022/01/15 09:39:41;;;;;;;;;20.33;17.33;;;;;4.62;73.28;100617.69;6270970;20;3562740;-59
2022/01/15 09:42:11;;;;;;;;;17.67;15.33;;;;;4.88;71.04;100618.91;6270398;20;3562773;-58
2022/01/15 09:44:41;;;;;;;;;11.60;10.60;;;;;4.80;72.22;100624.41;6324416;20;2781641;-57
2022/01/15 09:47:13;;;;;;;;;11.80;10.00;;;;;4.71;69.82;100624.59;6294353;20;2783940;-58
2022/01/15 09:49:45;;;;;;;;;12.86;11.00;;;;;4.87;69.55;100629.56;6308091;20;1816599;-57
2022/01/15 09:52:13;;;;;;;;;12.00;8.00;;;;;4.90;69.98;100635.72;6300660;20;2771092;-58
2022/01/15 09:54:42;;;;;;;;;10.00;8.00;;;;;4.84;68.09;100630.50;6260662;20;2739967;-57
2022/01/15 09:57:10;;;;;;;;;11.50;9.50;;;;;4.89;67.99;100628.63;6297295;20;2772126;-60
2022/01/15 09:59:38;;;;;;;;;21.50;20.50;;;;;5.16;68.78;100628.88;6266838;20;2500291;-55
2022/01/15 10:02:06;;;;;;;;;19.50;14.50;;;;;5.33;68.65;100633.81;6271016;20;2825295;-60
2022/01/15 10:04:36;;;;;;;;;16.60;13.40;;;;;5.21;68.75;100633.22;6289557;20;2811759;-59
2022/01/15 10:07:20;;;;;;;;;9.00;7.00;;;;;5.22;66.00;100628.75;6294377;20;1822264;-57
2022/01/15 10:09:49;;;;;;;;;11.00;7.00;;;;;5.21;66.51;100630.56;6298860;20;2760811;-60
2022/01/15 10:12:35;;;;;;;;;14.80;12.00;;;;;5.26;66.54;100627.75;6291353;20;2796231;-60
2022/01/15 10:15:07;;;;;;;;;29.00;22.00;;;;;5.80;66.84;100624.59;6265292;20;2483599;-58
2022/01/15 10:17:39;;;;;;;;;26.00;18.00;;;;;5.44;64.59;100627.28;6263638;20;2485669;-60
2022/01/15 10:20:23;;;;;;;;;16.00;11.00;;;;;5.38;63.50;100624.78;6268249;20;2796765;-64
2022/01/15 10:22:52;;;;;;;;;20.33;13.00;;;;;5.59;62.73;100619.84;6268784;20;3534676;-62
2022/01/15 10:25:23;;;;;;;;;9.00;9.00;;;;;5.49;63.14;100620.06;6300760;20;2748280;-61
2022/01/15 10:27:55;;;;;;;;;15.50;10.50;;;;;5.45;62.38;100618.41;6272917;20;2786691;-60
2022/01/15 10:30:28;;;;;;;;;26.67;21.33;;;;;5.36;61.27;100607.09;6265157;20;3555529;-60
2022/01/15 10:33:09;;;;;;;;;8.50;8.00;;;;;5.38;61.23;100608.81;6267152;20;2742107;-60
2022/01/15 10:35:42;;;;;;;;;26.00;23.00;;;;;5.55;61.76;100613.69;6267931;20;2822150;-59
2022/01/15 10:38:17;;;;;;;;;20.33;14.67;;;;;5.59;61.47;100610.06;6264530;20;3565848;-59
2022/01/15 10:40:53;;;;;;;;;31.00;21.50;;;;;5.59;60.68;100603.84;6261962;20;2854513;-60
2022/01/15 10:43:33;;;;;;;;;25.50;13.00;;;;;5.66;60.18;100608.97;6266292;20;2828431;-56
2022/01/15 10:46:01;;;;;;;;;8.50;8.50;;;;;5.44;60.57;100599.78;6270777;20;2741941;-59
2022/01/15 10:48:34;;;;;;;;;7.75;7.50;;;;;5.49;61.31;100603.22;6316717;20;1813967;-59
2022/01/15 10:51:10;;;;;;;;;13.00;9.57;;;;;5.79;59.94;100598.84;6335332;20;1811765;-61
2022/01/15 10:53:44;;;;;;;;;10.00;8.50;;;;;5.72;59.95;100591.94;6301879;20;2741976;-59
2022/01/15 10:56:15;;;;;;;;;19.67;16.00;;;;;6.07;60.30;100599.00;6267031;20;3556528;-59
2022/01/15 10:58:43;;;;;;;;;13.00;11.00;;;;;5.99;60.39;100592.13;6299374;20;2792065;-58
2022/01/15 11:01:26;;;;;;;;;13.00;12.00;;;;;5.89;60.45;100589.69;6271042;20;2789916;-61
2022/01/15 11:03:55;;;;;;;;;21.00;16.00;;;;;5.90;59.78;100588.78;6269317;20;3559746;-59
2022/01/15 11:06:38;;;;;;;;;19.00;16.00;;;;;6.10;58.74;100590.03;6298176;20;2814848;-61
2022/01/15 11:09:07;;;;;;;;;6.50;6.50;;;;;5.86;58.87;100587.09;6270125;20;2754568;-58
2022/01/15 11:11:35;;;;;;;;;19.50;11.50;;;;;5.85;59.73;100590.69;6270835;20;2797109;-59
2022/01/15 11:14:04;;;;;;;;;19.00;15.67;;;;;5.82;59.11;100584.56;6268097;20;3530460;-61
2022/01/15 11:16:31;;;;;;;;;19.00;18.00;;;;;5.99;59.25;100582.34;6297490;20;2492089;-59
2022/01/15 11:19:00;;;;;;;;;17.00;10.00;;;;;5.87;59.38;100578.22;6268678;20;2787852;-60
2022/01/15 11:21:30;;;;;;;;;6.00;6.00;;;;;5.87;58.81;100583.53;6287537;20;1816854;-58
2022/01/15 11:24:03;;;;;;;;;16.00;13.00;;;;;6.07;58.40;100588.31;6299714;20;2808607;-61
2022/01/15 11:26:35;;;;;;;;;20.67;15.00;;;;;6.20;58.92;100582.66;6267187;20;3530352;-58
2022/01/15 11:29:03;;;;;;;;;18.50;14.50;;;;;6.06;58.61;100589.25;6299648;20;2822129;-59
2022/01/15 11:31:34;;;;;;;;;21.33;17.33;;;;;6.08;58.53;100584.75;6267371;20;3551309;-59
2022/01/15 11:34:06;;;;;;;;;19.00;15.00;;;;;6.06;59.10;100570.59;6296983;20;3533580;-53
2022/01/15 11:36:42;;;;;;;;;15.00;13.00;;;;;5.91;59.20;100579.84;6296790;20;2798233;-61
2022/01/15 11:39:34;;;;;;;;;22.33;19.00;;;;;6.06;58.89;100573.25;6267259;20;3559728;-55
2022/01/15 11:42:04;;;;;;;;;13.50;11.00;;;;;6.30;59.64;100577.00;6265270;20;2779469;-61